createdAt,value
2022-12-26T00:00:31.925Z,6.47
2022-12-26T00:02:58.995Z,6.51
2022-12-26T00:05:26.027Z,6.47
2022-12-26T00:07:52.887Z,6.36
2022-12-26T00:10:19.753Z,6.22
2022-12-26T00:12:46.520Z,6.39
2022-12-26T00:15:13.266Z,6.48
2022-12-26T00:17:40.016Z,6.42
2022-12-26T00:20:07.267Z,6.32
2022-12-26T00:22:34.570Z,6.25
2022-12-26T00:25:01.351Z,6.23
2022-12-26T00:27:28.079Z,6.10
2022-12-26T00:29:55.199Z,6.19
2022-12-26T00:32:22.014Z,6.11
2022-12-26T00:34:49.321Z,5.88
2022-12-26T00:37:16.081Z,5.82
2022-12-26T00:39:42.854Z,4.87
2022-12-26T00:42:09.598Z,4.62
2022-12-26T00:44:36.652Z,5.24
2022-12-26T00:47:03.568Z,5.19
2022-12-26T00:50:12.985Z,5.46
2022-12-26T00:52:17.369Z,5.70
2022-12-26T00:54:44.128Z,5.88
2022-12-26T00:57:10.989Z,6.01
2022-12-26T00:59:37.886Z,6.11
2022-12-26T01:02:25.405Z,5.91
2022-12-26T01:04:52.300Z,6.12
2022-12-26T01:07:19.204Z,6.02
2022-12-26T01:09:46.044Z,5.93
2022-12-26T01:12:12.896Z,5.80
2022-12-26T01:14:40.227Z,5.72
2022-12-26T01:17:07.003Z,5.72
2022-12-26T01:19:33.665Z,5.57
2022-12-26T01:22:00.526Z,5.62
2022-12-26T01:24:27.372Z,5.75
2022-12-26T01:26:54.050Z,5.73
2022-12-26T01:29:20.915Z,5.64
2022-12-26T01:31:47.937Z,5.70
2022-12-26T01:34:14.667Z,5.77
2022-12-26T01:36:42.512Z,5.90
2022-12-26T01:39:09.493Z,5.80
2022-12-26T01:41:37.346Z,4.63
2022-12-26T01:44:07.233Z,4.93
2022-12-26T01:46:39.009Z,5.10
2022-12-26T01:49:40.371Z,4.42
2022-12-26T01:52:13.708Z,4.55
2022-12-26T01:54:44.149Z,5.01
2022-12-26T01:57:16.941Z,5.12
2022-12-26T01:59:46.407Z,4.96
2022-12-26T02:02:14.320Z,4.99
2022-12-26T02:05:04.543Z,5.16
2022-12-26T02:07:34.105Z,5.16
2022-12-26T02:10:01.304Z,5.14
2022-12-26T02:12:38.441Z,5.20
2022-12-26T02:15:10.824Z,5.14
2022-12-26T02:17:39.136Z,5.16
2022-12-26T02:20:10.311Z,5.28
2022-12-26T02:23:01.788Z,5.22
2022-12-26T02:25:38.426Z,5.25
2022-12-26T02:28:20.349Z,5.30
2022-12-26T02:31:13.064Z,5.29
2022-12-26T02:33:46.714Z,5.25
2022-12-26T02:36:47.401Z,5.23
2022-12-26T02:39:45.586Z,5.33
2022-12-26T02:42:35.776Z,5.19
2022-12-26T02:45:35.573Z,5.28
2022-12-26T02:48:14.147Z,5.23
2022-12-26T02:51:13.148Z,5.12
2022-12-26T02:54:08.771Z,5.31
2022-12-26T02:56:59.419Z,5.29
2022-12-26T03:00:12.922Z,5.27
2022-12-26T03:03:33.665Z,5.37
2022-12-26T03:06:23.994Z,5.24
2022-12-26T03:09:19.015Z,4.89
2022-12-26T03:12:09.983Z,5.05
2022-12-26T03:15:04.345Z,4.88
2022-12-26T03:17:41.141Z,4.90
2022-12-26T03:20:15.550Z,5.01
2022-12-26T03:22:48.327Z,4.92
2022-12-26T03:25:43.875Z,4.82
2022-12-26T03:28:10.756Z,4.70
2022-12-26T03:30:50.084Z,4.82
2022-12-26T03:33:41.492Z,4.63
2022-12-26T03:36:15.271Z,4.80
2022-12-26T03:39:09.390Z,4.76
2022-12-26T03:42:09.887Z,4.79
2022-12-26T03:45:06.050Z,4.92
2022-12-26T03:48:11.905Z,4.98
2022-12-26T03:51:03.442Z,4.88
2022-12-26T03:53:55.641Z,4.90
2022-12-26T03:56:54.279Z,4.91
2022-12-26T03:59:47.492Z,4.81
2022-12-26T04:02:35.103Z,4.83
2022-12-26T04:05:24.095Z,4.27
2022-12-26T04:08:18.923Z,4.18
2022-12-26T04:11:11.032Z,4.18
2022-12-26T04:14:12.586Z,4.13
2022-12-26T04:17:05.086Z,4.06
2022-12-26T04:19:58.768Z,3.97
2022-12-26T04:22:53.345Z,4.03
2022-12-26T04:25:50.611Z,4.01
2022-12-26T04:28:38.758Z,4.16
2022-12-26T04:31:34.131Z,4.07
2022-12-26T04:34:25.627Z,4.09
2022-12-26T04:37:25.403Z,4.12
2022-12-26T04:40:15.307Z,4.37
2022-12-26T04:43:48.112Z,4.23
2022-12-26T04:45:50.467Z,4.25
2022-12-26T04:48:35.803Z,4.21
2022-12-26T04:51:02.625Z,4.18
2022-12-26T04:53:29.385Z,3.59
2022-12-26T04:55:56.195Z,4.08
2022-12-26T04:58:24.392Z,3.97
2022-12-26T05:00:51.355Z,4.07
2022-12-26T05:03:36.915Z,3.83
2022-12-26T05:06:42.439Z,3.73
2022-12-26T05:09:30.265Z,3.58
2022-12-26T05:11:57.111Z,3.94
2022-12-26T05:14:23.871Z,3.93
2022-12-26T05:17:09.479Z,3.91
2022-12-26T05:19:55.080Z,3.99
2022-12-26T05:22:50.300Z,3.91
2022-12-26T05:25:39.685Z,3.92
2022-12-26T05:28:28.799Z,3.93
2022-12-26T05:30:55.745Z,3.93
2022-12-26T05:33:41.161Z,3.92
2022-12-26T05:36:09.281Z,3.86
2022-12-26T05:38:37.232Z,3.87
2022-12-26T05:41:04.400Z,3.64
2022-12-26T05:43:31.317Z,2.95
2022-12-26T05:45:58.593Z,3.25
2022-12-26T05:48:26.406Z,3.50
2022-12-26T05:50:53.436Z,3.29
2022-12-26T05:53:20.254Z,3.43
2022-12-26T05:55:47.038Z,3.58
2022-12-26T05:58:13.812Z,3.82
2022-12-26T06:00:40.626Z,3.85
2022-12-26T06:03:08.598Z,3.58
2022-12-26T06:05:35.670Z,3.58
2022-12-26T06:08:02.525Z,3.61
2022-12-26T06:10:29.861Z,3.86
2022-12-26T06:12:57.000Z,3.89
2022-12-26T06:15:23.828Z,3.95
2022-12-26T06:17:50.637Z,3.98
2022-12-26T06:20:18.053Z,3.87
2022-12-26T06:22:44.841Z,3.78
2022-12-26T06:25:11.550Z,3.66
2022-12-26T06:27:38.492Z,3.85
2022-12-26T06:30:05.828Z,3.69
2022-12-26T06:32:33.703Z,3.69
2022-12-26T06:35:00.472Z,3.58
2022-12-26T06:37:27.281Z,3.66
2022-12-26T06:39:54.034Z,3.74
2022-12-26T06:42:20.699Z,3.87
2022-12-26T06:44:47.437Z,3.97
2022-12-26T06:47:14.291Z,4.12
2022-12-26T06:49:41.248Z,4.26
2022-12-26T06:52:08.587Z,4.29
2022-12-26T06:54:35.366Z,4.62
2022-12-26T06:57:02.072Z,4.68
2022-12-26T06:59:29.084Z,4.54
2022-12-26T07:01:56.040Z,4.71
2022-12-26T07:04:22.884Z,4.93
2022-12-26T07:06:49.684Z,5.04
2022-12-26T07:09:19.036Z,5.12
2022-12-26T07:11:49.403Z,5.18
2022-12-26T07:14:16.570Z,5.39
2022-12-26T07:16:45.262Z,5.39
2022-12-26T07:19:14.228Z,5.62
2022-12-26T07:21:41.941Z,5.45
2022-12-26T07:24:21.069Z,5.44
2022-12-26T07:26:49.192Z,5.55
2022-12-26T07:29:16.368Z,5.35
2022-12-26T07:31:43.184Z,5.70
2022-12-26T07:34:10.398Z,5.88
2022-12-26T07:36:37.240Z,6.00
2022-12-26T07:39:04.154Z,5.95
2022-12-26T07:41:49.369Z,6.22
2022-12-26T07:44:16.531Z,6.29
2022-12-26T07:46:43.759Z,6.60
2022-12-26T07:49:12.591Z,6.81
2022-12-26T07:51:39.646Z,6.76
2022-12-26T07:54:10.969Z,6.78
2022-12-26T07:56:38.053Z,6.89
2022-12-26T07:59:04.943Z,6.85
2022-12-26T08:01:32.029Z,7.13
2022-12-26T08:03:58.977Z,7.24
2022-12-26T08:06:25.896Z,7.44
2022-12-26T08:08:52.759Z,7.56
2022-12-26T08:11:22.802Z,7.73
2022-12-26T08:13:50.636Z,7.98
2022-12-26T08:16:17.593Z,8.04
2022-12-26T08:18:44.964Z,7.84
2022-12-26T08:21:12.170Z,7.99
2022-12-26T08:23:39.531Z,8.27
2022-12-26T08:26:08.827Z,8.40
2022-12-26T08:28:36.203Z,8.03
2022-12-26T08:31:10.885Z,8.60
2022-12-26T08:33:37.676Z,8.59
2022-12-26T08:36:06.342Z,8.85
2022-12-26T08:38:34.014Z,9.12
2022-12-26T08:41:01.435Z,9.52
2022-12-26T08:44:03.572Z,9.84
2022-12-26T08:46:16.249Z,10.26
2022-12-26T08:48:44.390Z,10.10
2022-12-26T08:51:14.695Z,10.80
2022-12-26T08:53:41.755Z,10.98
2022-12-26T08:56:13.611Z,11.16
2022-12-26T08:58:41.644Z,11.08
2022-12-26T09:01:12.115Z,10.97
2022-12-26T09:03:40.034Z,11.07
2022-12-26T09:06:07.249Z,11.13
2022-12-26T09:08:35.954Z,10.98
2022-12-26T09:11:13.390Z,11.41
2022-12-26T09:13:41.571Z,11.37
2022-12-26T09:16:14.531Z,11.54
2022-12-26T09:18:42.574Z,11.61
2022-12-26T09:21:10.961Z,11.69
2022-12-26T09:23:39.007Z,11.73
2022-12-26T09:26:08.861Z,12.09
2022-12-26T09:28:36.673Z,11.88
2022-12-26T09:31:06.311Z,11.93
2022-12-26T09:33:33.508Z,11.83
2022-12-26T09:36:04.024Z,11.61
2022-12-26T09:38:32.528Z,11.56
2022-12-26T09:41:36.825Z,11.82
2022-12-26T09:44:03.585Z,11.89
2022-12-26T09:46:51.792Z,11.91
2022-12-26T09:49:26.109Z,12.14
2022-12-26T09:51:57.620Z,12.54
2022-12-26T09:54:38.148Z,12.70
2022-12-26T09:57:15.205Z,12.86
2022-12-26T10:00:05.121Z,12.89
2022-12-26T10:02:39.314Z,12.17
2022-12-26T10:05:06.985Z,11.75
2022-12-26T10:07:44.545Z,11.89
2022-12-26T10:10:14.377Z,11.97
2022-12-26T10:13:13.035Z,12.04
2022-12-26T10:15:51.996Z,11.57
2022-12-26T10:18:56.893Z,12.21
2022-12-26T10:21:36.288Z,11.90
2022-12-26T10:24:20.537Z,12.15
2022-12-26T10:27:02.175Z,12.49
2022-12-26T10:29:38.920Z,12.56
2022-12-26T10:32:14.237Z,12.68
2022-12-26T10:34:44.681Z,12.81
2022-12-26T10:37:27.133Z,12.63
2022-12-26T10:40:06.111Z,13.02
2022-12-26T10:42:44.407Z,12.52
2022-12-26T10:45:22.043Z,12.55
2022-12-26T10:47:51.864Z,12.95
2022-12-26T10:50:27.913Z,13.32
2022-12-26T10:52:59.126Z,13.18
2022-12-26T10:55:34.769Z,13.41
2022-12-26T10:58:26.099Z,13.33
2022-12-26T11:00:53.701Z,13.14
2022-12-26T11:03:21.767Z,13.19
2022-12-26T11:06:08.968Z,13.26
2022-12-26T11:08:47.564Z,13.46
2022-12-26T11:11:23.835Z,13.14
2022-12-26T11:14:01.340Z,13.29
2022-12-26T11:16:40.338Z,13.16
2022-12-26T11:19:07.151Z,13.28
2022-12-26T11:21:34.230Z,13.48
2022-12-26T11:24:19.766Z,13.54
2022-12-26T11:26:47.062Z,13.42
2022-12-26T11:29:19.411Z,13.39
2022-12-26T11:32:04.207Z,13.46
2022-12-26T11:34:37.980Z,13.47
2022-12-26T11:37:07.138Z,13.46
2022-12-26T11:39:38.252Z,13.40
2022-12-26T11:42:13.296Z,13.57
2022-12-26T11:44:45.701Z,13.56
2022-12-26T11:47:19.337Z,13.82
2022-12-26T11:50:03.845Z,13.10
2022-12-26T11:52:44.488Z,13.08
2022-12-26T11:55:34.017Z,14.01
2022-12-26T11:58:07.059Z,15.06
2022-12-26T12:00:42.280Z,16.18
2022-12-26T12:03:32.410Z,16.57
2022-12-26T12:06:10.089Z,17.09
2022-12-26T12:08:51.868Z,17.65
2022-12-26T12:11:47.432Z,17.91
2022-12-26T12:14:45.118Z,18.83
2022-12-26T12:17:20.968Z,19.41
2022-12-26T12:20:06.758Z,20.13
2022-12-26T12:22:55.364Z,20.38
2022-12-26T12:25:34.595Z,19.78
2022-12-26T12:28:25.850Z,19.41
2022-12-26T12:31:07.581Z,18.56
2022-12-26T12:33:43.353Z,19.29
2022-12-26T12:36:32.522Z,20.07
2022-12-26T12:39:31.728Z,19.96
2022-12-26T12:42:15.500Z,20.88
2022-12-26T12:45:19.328Z,21.49
2022-12-26T12:48:22.826Z,22.06
2022-12-26T12:51:11.032Z,21.82
2022-12-26T12:54:16.189Z,21.55
2022-12-26T12:57:25.146Z,22.26
2022-12-26T13:00:13.951Z,22.46
2022-12-26T13:02:40.798Z,22.11
2022-12-26T13:05:23.357Z,21.84
2022-12-26T13:08:12.407Z,21.21
2022-12-26T13:10:49.552Z,20.63
2022-12-26T13:13:26.564Z,20.08
2022-12-26T13:16:00.471Z,20.60
2022-12-26T13:18:33.613Z,20.42
2022-12-26T13:21:05.962Z,20.43
2022-12-26T13:24:07.133Z,20.00
2022-12-26T13:26:40.373Z,18.35
2022-12-26T13:29:16.290Z,16.90
2022-12-26T13:31:47.588Z,16.67
2022-12-26T13:34:19.486Z,15.80
2022-12-26T13:36:49.043Z,15.49
2022-12-26T13:39:30.796Z,15.18
2022-12-26T13:42:22.765Z,14.67
2022-12-26T13:44:53.457Z,14.19
2022-12-26T13:47:39.295Z,14.22
2022-12-26T13:50:48.542Z,14.23
2022-12-26T13:53:23.777Z,13.81
2022-12-26T13:56:04.837Z,13.98
2022-12-26T13:58:56.390Z,14.18
2022-12-26T14:01:53.704Z,14.07
2022-12-26T14:05:19.883Z,13.95
2022-12-26T14:08:04.129Z,13.94
2022-12-26T14:10:40.920Z,13.82
2022-12-26T14:13:30.946Z,13.71
2022-12-26T14:16:16.318Z,13.74
2022-12-26T14:19:04.574Z,13.54
2022-12-26T14:22:01.034Z,13.49
2022-12-26T14:24:43.375Z,13.87
2022-12-26T14:27:42.457Z,13.54
2022-12-26T14:30:23.541Z,13.65
2022-12-26T14:33:23.471Z,13.60
2022-12-26T14:36:01.376Z,13.17
2022-12-26T14:38:36.080Z,13.03
2022-12-26T14:41:07.859Z,13.16
2022-12-26T14:43:42.146Z,13.15
2022-12-26T14:46:31.370Z,12.91
2022-12-26T14:49:21.821Z,13.02
2022-12-26T14:51:48.995Z,12.59
2022-12-26T14:54:35.307Z,12.44
2022-12-26T14:57:40.132Z,12.66
2022-12-26T15:00:20.945Z,12.50
2022-12-26T15:03:27.333Z,12.05
2022-12-26T15:06:04.759Z,12.29
2022-12-26T15:08:54.236Z,11.97
2022-12-26T15:11:42.231Z,11.99
2022-12-26T15:14:32.621Z,11.56
2022-12-26T15:17:26.081Z,11.46
2022-12-26T15:20:11.743Z,11.04
2022-12-26T15:22:51.027Z,10.77
2022-12-26T15:25:44.136Z,11.04
2022-12-26T15:28:17.944Z,11.35
2022-12-26T15:30:48.442Z,11.35
2022-12-26T15:33:29.290Z,11.32
2022-12-26T15:36:16.925Z,11.19
2022-12-26T15:38:50.139Z,11.16
2022-12-26T15:41:46.042Z,11.16
2022-12-26T15:44:33.338Z,11.01
2022-12-26T15:47:18.010Z,10.70
2022-12-26T15:50:03.676Z,10.25
2022-12-26T15:52:53.963Z,10.26
2022-12-26T15:55:40.842Z,10.51
2022-12-26T15:58:19.969Z,10.64
2022-12-26T16:00:52.811Z,10.37
2022-12-26T16:03:49.815Z,9.98
2022-12-26T16:06:31.758Z,9.83
2022-12-26T16:09:06.487Z,10.21
2022-12-26T16:11:47.956Z,10.56
2022-12-26T16:14:27.449Z,10.53
2022-12-26T16:17:15.462Z,10.49
2022-12-26T16:19:45.370Z,10.10
2022-12-26T16:22:43.866Z,10.13
2022-12-26T16:25:23.601Z,9.07
2022-12-26T16:27:54.681Z,9.03
2022-12-26T16:30:25.325Z,9.14
2022-12-26T16:32:53.087Z,9.28
2022-12-26T16:35:31.386Z,9.16
2022-12-26T16:38:00.348Z,8.59
2022-12-26T16:40:42.010Z,8.93
2022-12-26T16:43:18.483Z,8.88
2022-12-26T16:45:47.855Z,9.26
2022-12-26T16:48:17.308Z,9.42
2022-12-26T16:50:55.775Z,9.39
2022-12-26T16:53:40.469Z,9.23
2022-12-26T16:56:18.008Z,9.26
2022-12-26T16:58:44.842Z,9.47
2022-12-26T17:01:20.088Z,9.19
2022-12-26T17:04:17.172Z,8.79
2022-12-26T17:07:07.036Z,9.18
2022-12-26T17:09:44.808Z,9.38
2022-12-26T17:12:24.717Z,8.69
2022-12-26T17:14:53.322Z,9.04
2022-12-26T17:17:22.977Z,8.39
2022-12-26T17:19:54.213Z,8.72
2022-12-26T17:22:29.459Z,8.34
2022-12-26T17:25:17.223Z,8.36
2022-12-26T17:27:45.034Z,8.36
2022-12-26T17:30:25.703Z,8.58
2022-12-26T17:32:52.575Z,8.59
2022-12-26T17:35:26.305Z,8.62
2022-12-26T17:38:01.326Z,8.71
2022-12-26T17:40:41.287Z,8.77
2022-12-26T17:43:20.034Z,8.75
2022-12-26T17:45:47.383Z,8.58
2022-12-26T17:48:14.385Z,7.96
2022-12-26T17:50:44.004Z,8.27
2022-12-26T17:53:26.061Z,7.85
2022-12-26T17:55:54.989Z,7.36
2022-12-26T17:58:22.376Z,7.32
2022-12-26T18:00:50.259Z,7.79
2022-12-26T18:03:17.776Z,8.03
2022-12-26T18:05:46.305Z,7.90
2022-12-26T18:08:44.585Z,7.34
2022-12-26T18:11:13.201Z,7.30
2022-12-26T18:13:40.651Z,7.07
2022-12-26T18:16:11.369Z,7.02
2022-12-26T18:18:43.680Z,7.44
2022-12-26T18:21:14.023Z,7.61
2022-12-26T18:23:41.091Z,7.90
2022-12-26T18:26:24.060Z,8.06
2022-12-26T18:28:51.979Z,8.21
2022-12-26T18:31:21.628Z,8.10
2022-12-26T18:33:48.332Z,8.38
2022-12-26T18:36:17.346Z,8.18
2022-12-26T18:38:44.810Z,7.28
2022-12-26T18:41:17.287Z,7.07
2022-12-26T18:43:44.239Z,7.53
2022-12-26T18:46:20.648Z,6.96
2022-12-26T18:48:48.029Z,6.93
2022-12-26T18:51:15.318Z,6.36
2022-12-26T18:53:42.172Z,7.10
2022-12-26T18:56:15.116Z,6.79
2022-12-26T18:58:41.843Z,7.22
2022-12-26T19:01:13.384Z,7.74
2022-12-26T19:03:40.950Z,7.70
2022-12-26T19:06:13.291Z,7.91
2022-12-26T19:08:40.301Z,7.96
2022-12-26T19:11:07.145Z,7.75
2022-12-26T19:13:33.837Z,7.71
2022-12-26T19:16:00.695Z,6.98
2022-12-26T19:18:27.504Z,7.57
2022-12-26T19:20:54.187Z,7.65
2022-12-26T19:23:20.945Z,7.24
2022-12-26T19:25:47.809Z,7.60
2022-12-26T19:28:14.539Z,7.69
2022-12-26T19:30:41.466Z,7.58
2022-12-26T19:33:09.645Z,7.51
2022-12-26T19:35:36.433Z,7.60
2022-12-26T19:38:03.380Z,7.37
2022-12-26T19:40:32.258Z,7.54
2022-12-26T19:42:59.019Z,7.39
2022-12-26T19:45:25.909Z,7.40
2022-12-26T19:47:53.761Z,7.47
2022-12-26T19:50:20.704Z,7.26
2022-12-26T19:52:47.439Z,7.18
2022-12-26T19:55:14.280Z,7.15
2022-12-26T19:57:41.005Z,6.96
2022-12-26T20:00:08.792Z,5.99
2022-12-26T20:02:41.758Z,6.13
2022-12-26T20:05:09.332Z,6.41
2022-12-26T20:07:36.330Z,5.54
2022-12-26T20:10:04.348Z,6.24
2022-12-26T20:12:31.157Z,6.03
2022-12-26T20:14:57.972Z,6.48
2022-12-26T20:17:24.806Z,6.55
2022-12-26T20:19:52.421Z,6.55
2022-12-26T20:22:19.321Z,5.89
2022-12-26T20:24:47.169Z,6.43
2022-12-26T20:27:14.290Z,5.34
2022-12-26T20:29:42.037Z,5.92
2022-12-26T20:32:09.000Z,6.17
2022-12-26T20:34:35.840Z,6.05
2022-12-26T20:37:02.741Z,5.88
2022-12-26T20:39:31.287Z,6.04
2022-12-26T20:41:58.087Z,5.66
2022-12-26T20:44:25.382Z,6.18
2022-12-26T20:46:52.198Z,6.21
2022-12-26T20:49:19.040Z,5.60
2022-12-26T20:51:46.013Z,5.45
2022-12-26T20:54:14.865Z,5.43
2022-12-26T20:56:42.609Z,5.30
2022-12-26T20:59:09.633Z,5.52
2022-12-26T21:01:37.789Z,5.68
2022-12-26T21:04:05.158Z,5.97
2022-12-26T21:06:34.964Z,5.76
2022-12-26T21:09:03.040Z,5.96
2022-12-26T21:11:38.046Z,6.28
2022-12-26T21:14:10.155Z,6.38
2022-12-26T21:16:40.169Z,6.15
2022-12-26T21:19:14.295Z,6.05
2022-12-26T21:21:44.325Z,6.10
2022-12-26T21:24:15.658Z,6.46
2022-12-26T21:26:43.518Z,6.17
2022-12-26T21:29:31.879Z,6.02
2022-12-26T21:32:00.509Z,6.11
2022-12-26T21:34:29.770Z,5.33
2022-12-26T21:37:20.998Z,5.90
2022-12-26T21:39:49.578Z,5.52
2022-12-26T21:42:16.811Z,5.68
2022-12-26T21:44:43.816Z,5.07
2022-12-26T21:47:10.604Z,5.10
2022-12-26T21:49:37.787Z,5.36
2022-12-26T21:52:06.386Z,5.53
2022-12-26T21:54:52.391Z,5.53
2022-12-26T21:57:19.714Z,5.74
2022-12-26T21:59:59.153Z,5.42
2022-12-26T22:02:52.345Z,5.75
2022-12-26T22:05:24.112Z,5.88
2022-12-26T22:07:59.592Z,5.93
2022-12-26T22:10:49.578Z,5.92
2022-12-26T22:13:17.577Z,5.59
2022-12-26T22:16:04.458Z,5.66
2022-12-26T22:18:48.408Z,5.63
2022-12-26T22:21:20.379Z,5.72
2022-12-26T22:23:50.568Z,5.68
2022-12-26T22:26:19.380Z,5.71
2022-12-26T22:28:46.916Z,5.71
2022-12-26T22:31:22.338Z,5.88
2022-12-26T22:33:58.123Z,5.95
2022-12-26T22:36:26.222Z,5.99
2022-12-26T22:38:53.069Z,6.03
2022-12-26T22:41:19.980Z,6.03
2022-12-26T22:43:46.749Z,6.04
2022-12-26T22:46:14.172Z,6.03
2022-12-26T22:48:41.664Z,5.95
2022-12-26T22:51:09.682Z,5.76
2022-12-26T22:53:36.480Z,5.01
2022-12-26T22:56:05.189Z,5.07
2022-12-26T22:58:32.836Z,5.05
2022-12-26T23:01:00.239Z,5.37
2022-12-26T23:03:27.588Z,4.95
2022-12-26T23:05:55.144Z,5.18
2022-12-26T23:08:25.240Z,5.14
2022-12-26T23:10:55.086Z,5.15
2022-12-26T23:13:22.257Z,5.38
2022-12-26T23:16:13.916Z,4.86
2022-12-26T23:19:14.505Z,4.64
2022-12-26T23:21:45.037Z,5.07
2022-12-26T23:24:15.649Z,4.94
2022-12-26T23:26:46.483Z,5.07
2022-12-26T23:29:37.851Z,5.24
2022-12-26T23:32:05.574Z,4.85
2022-12-26T23:34:32.330Z,4.72
2022-12-26T23:36:59.211Z,5.01
2022-12-26T23:39:26.022Z,4.71
2022-12-26T23:41:53.009Z,5.03
2022-12-26T23:44:19.794Z,5.15
2022-12-26T23:46:47.785Z,4.53
2022-12-26T23:49:15.957Z,4.94
2022-12-26T23:51:43.064Z,5.06
2022-12-26T23:54:10.826Z,5.18
2022-12-26T23:56:37.882Z,5.03
2022-12-26T23:59:05.449Z,5.13
